Time;durP1;ratioP1;P1;durP2;ratioP2;P2;SDS_P1;SDS_P2;PMS_P1;PMS_P2;Temp;Humidity;BMP_temperature;BMP_pressure;BME280_temperature;BME280_humidity;BME280_pressure;Samples;Min_cycle;Max_cycle;Signal;HPM_P1;HPM_P2
2022/01/11 00:02:16;;;;;;;22.55;13.13;;;-0.30;99.90;;;;;;4982858;28;20206;-84
2022/01/11 00:04:43;;;;;;;23.80;12.40;;;-0.30;99.90;;;;;;4983643;28;20792;-84
2022/01/11 00:07:13;;;;;;;21.42;12.43;;;-0.30;99.90;;;;;;4984265;28;20213;-84
2022/01/11 00:09:42;;;;;;;18.63;11.45;;;-0.40;99.90;;;;;;4980866;28;20639;-84
2022/01/11 00:12:10;;;;;;;21.90;11.40;;;-0.40;99.90;;;;;;4982280;28;20222;-83
2022/01/11 00:14:39;;;;;;;27.42;12.68;;;-0.40;99.90;;;;;;4980067;28;20218;-84
2022/01/11 00:17:06;;;;;;;23.48;11.65;;;-0.40;99.90;;;;;;4981899;28;20221;-84
2022/01/11 00:19:34;;;;;;;18.25;11.63;;;-0.40;99.90;;;;;;4983379;28;20223;-84
2022/01/11 00:22:03;;;;;;;18.73;11.45;;;-0.50;99.90;;;;;;4981781;28;20212;-84
2022/01/11 00:24:30;;;;;;;24.52;11.77;;;-0.40;99.90;;;;;;4982930;28;20211;-83
2022/01/11 00:27:02;;;;;;;20.35;11.77;;;-0.50;99.90;;;;;;4983543;28;20200;-84
2022/01/11 00:29:30;;;;;;;20.20;11.35;;;-0.50;99.90;;;;;;4982346;28;20716;-84
2022/01/11 00:32:02;;;;;;;18.73;10.82;;;-0.50;99.90;;;;;;4983514;28;20244;-84
2022/01/11 00:34:39;;;;;;;19.92;11.68;;;-0.50;99.90;;;;;;4983810;28;20220;-83
2022/01/11 00:37:06;;;;;;;19.48;10.88;;;-0.50;99.90;;;;;;4985917;28;20272;-84
2022/01/11 00:39:34;;;;;;;17.38;11.13;;;-0.50;99.90;;;;;;4987206;28;20297;-83
2022/01/11 00:42:01;;;;;;;19.00;10.15;;;-0.50;99.90;;;;;;4985825;28;20205;-83
2022/01/11 00:44:28;;;;;;;21.85;10.60;;;-0.50;99.90;;;;;;4986951;28;20280;-82
2022/01/11 00:46:55;;;;;;;16.00;11.98;;;-0.60;99.90;;;;;;4986245;28;20266;-83
2022/01/11 00:49:23;;;;;;;23.60;11.70;;;-0.60;99.90;;;;;;4985982;28;20228;-82
2022/01/11 00:51:50;;;;;;;19.20;10.27;;;-0.60;99.90;;;;;;4985776;28;20219;-82
2022/01/11 00:54:17;;;;;;;18.48;10.15;;;-0.60;99.90;;;;;;4986350;28;20213;-83
2022/01/11 00:56:44;;;;;;;15.70;11.00;;;-0.60;99.90;;;;;;4985221;28;20357;-81
2022/01/11 00:59:10;;;;;;;22.30;11.20;;;-0.60;99.90;;;;;;4984627;28;20325;-80
2022/01/11 01:01:38;;;;;;;19.95;11.30;;;-0.60;99.90;;;;;;4983513;28;20205;-83
2022/01/11 01:04:05;;;;;;;17.42;11.00;;;-0.70;99.90;;;;;;4984882;28;20211;-82
2022/01/11 01:06:34;;;;;;;20.33;11.25;;;-0.70;99.90;;;;;;4983554;28;20810;-83
2022/01/11 01:09:01;;;;;;;14.07;9.70;;;-0.60;99.90;;;;;;4984660;28;20224;-83
2022/01/11 01:11:27;;;;;;;20.15;11.55;;;-0.70;99.90;;;;;;4985415;28;20217;-81
2022/01/11 01:13:54;;;;;;;23.08;11.68;;;-0.70;99.90;;;;;;4986080;28;20295;-82
2022/01/11 01:16:21;;;;;;;17.98;10.60;;;-0.70;99.90;;;;;;4986626;28;20295;-82
2022/01/11 01:18:48;;;;;;;18.90;10.90;;;-0.70;99.90;;;;;;4986286;28;20224;-83
2022/01/11 01:21:15;;;;;;;22.73;11.40;;;-0.70;99.90;;;;;;4984167;28;20198;-82
2022/01/11 01:23:44;;;;;;;16.20;10.45;;;-0.70;99.90;;;;;;4985597;28;20280;-82
2022/01/11 01:26:11;;;;;;;17.90;10.60;;;-0.70;99.90;;;;;;4985632;28;20200;-83
2022/01/11 01:28:39;;;;;;;22.67;10.65;;;-0.70;99.90;;;;;;4986095;28;20225;-84
2022/01/11 01:31:06;;;;;;;20.33;9.68;;;-0.70;99.90;;;;;;4984876;28;20212;-83
2022/01/11 01:33:34;;;;;;;18.90;10.40;;;-0.70;99.90;;;;;;4984809;28;20212;-83
2022/01/11 01:36:03;;;;;;;18.23;9.75;;;-0.70;99.90;;;;;;4984172;28;20308;-82
2022/01/11 01:38:32;;;;;;;18.42;10.43;;;-0.70;99.90;;;;;;4982907;28;20238;-81
2022/01/11 01:41:10;;;;;;;17.95;9.50;;;-0.70;99.90;;;;;;4980404;28;20198;-83
2022/01/11 01:43:37;;;;;;;15.75;9.82;;;-0.70;99.90;;;;;;4983472;28;20659;-82
2022/01/11 01:46:04;;;;;;;16.02;10.40;;;-0.70;99.90;;;;;;4981814;28;20284;-82
2022/01/11 01:48:31;;;;;;;21.80;9.90;;;-0.60;99.90;;;;;;4981577;28;20241;-82
2022/01/11 01:50:58;;;;;;;15.52;8.68;;;-0.60;99.90;;;;;;4980403;28;20211;-83
2022/01/11 01:53:26;;;;;;;19.52;10.77;;;-0.60;99.90;;;;;;4980074;28;20213;-82
2022/01/11 01:55:53;;;;;;;14.13;9.73;;;-0.70;99.90;;;;;;4980697;28;20228;-83
2022/01/11 01:58:22;;;;;;;17.00;8.07;;;-0.70;99.90;;;;;;4980651;28;20599;-82
2022/01/11 02:00:54;;;;;;;17.85;9.77;;;-0.70;99.90;;;;;;4979386;28;20668;-83
2022/01/11 02:03:26;;;;;;;15.88;8.25;;;-0.70;99.90;;;;;;4980610;28;20253;-83
2022/01/11 02:05:54;;;;;;;21.38;10.20;;;-0.70;99.90;;;;;;4979992;28;20260;-82
2022/01/11 02:08:21;;;;;;;17.20;10.45;;;-0.80;99.90;;;;;;4980735;28;20663;-83
2022/01/11 02:10:48;;;;;;;15.38;9.30;;;-0.80;99.90;;;;;;4980907;28;20734;-83
2022/01/11 02:13:16;;;;;;;16.33;9.98;;;-0.80;99.90;;;;;;4981192;28;20291;-82
2022/01/11 02:15:44;;;;;;;13.77;9.23;;;-0.80;99.90;;;;;;4979466;28;20222;-82
2022/01/11 02:18:13;;;;;;;18.98;9.73;;;-0.90;99.90;;;;;;4979959;28;20228;-81
2022/01/11 02:20:43;;;;;;;18.80;10.50;;;-0.80;99.90;;;;;;4980801;28;20213;-80
2022/01/11 02:23:10;;;;;;;16.92;8.93;;;-0.80;99.90;;;;;;4981670;28;20254;-82
2022/01/11 02:25:38;;;;;;;14.82;10.38;;;-0.90;99.90;;;;;;4980861;28;20276;-82
2022/01/11 02:28:06;;;;;;;12.30;8.95;;;-0.90;99.90;;;;;;4978305;28;20219;-82
2022/01/11 02:30:34;;;;;;;13.68;8.57;;;-0.90;99.90;;;;;;4979693;28;20283;-82
2022/01/11 02:33:04;;;;;;;16.63;9.50;;;-0.90;99.90;;;;;;4980646;28;20209;-83
2022/01/11 02:35:31;;;;;;;12.25;8.57;;;-1.00;99.90;;;;;;4977720;28;20215;-82
2022/01/11 02:37:59;;;;;;;13.38;8.50;;;-0.90;99.90;;;;;;4976857;28;20227;-81
2022/01/11 02:40:26;;;;;;;15.02;9.75;;;-0.90;99.90;;;;;;4980775;28;20220;-81
2022/01/11 02:42:53;;;;;;;12.43;7.78;;;-0.90;99.90;;;;;;4979258;28;20205;-81
2022/01/11 02:45:21;;;;;;;13.85;8.10;;;-0.90;99.90;;;;;;4980229;28;20734;-81
2022/01/11 02:47:49;;;;;;;13.43;7.93;;;-0.80;99.90;;;;;;4979063;28;20219;-82
2022/01/11 02:50:17;;;;;;;12.13;7.18;;;-0.90;99.90;;;;;;4978240;28;20387;-82
2022/01/11 02:52:44;;;;;;;14.38;8.52;;;-0.90;99.90;;;;;;4975277;28;20200;-81
2022/01/11 02:55:14;;;;;;;11.90;8.00;;;-0.90;99.90;;;;;;4977721;28;20303;-81
2022/01/11 02:57:41;;;;;;;18.85;8.80;;;-0.90;99.90;;;;;;4979813;28;20284;-82
2022/01/11 03:00:11;;;;;;;11.88;8.50;;;-0.90;99.90;;;;;;4979540;28;20209;-80
2022/01/11 03:02:38;;;;;;;16.02;8.75;;;-0.90;99.90;;;;;;4979198;28;20215;-82
2022/01/11 03:05:06;;;;;;;16.30;9.70;;;-1.00;99.90;;;;;;4977577;28;20216;-81
2022/01/11 03:07:33;;;;;;;18.48;10.20;;;-1.00;99.90;;;;;;4978061;28;20196;-82
2022/01/11 03:10:04;;;;;;;16.02;8.98;;;-1.00;99.90;;;;;;4977495;28;20669;-82
2022/01/11 03:12:32;;;;;;;15.63;8.48;;;-1.00;99.90;;;;;;4978054;28;20208;-81
2022/01/11 03:14:59;;;;;;;20.13;9.82;;;-1.00;99.90;;;;;;4977993;28;20597;-81
2022/01/11 03:17:26;;;;;;;18.42;9.18;;;-1.00;99.90;;;;;;4977733;28;20223;-81
2022/01/11 03:19:54;;;;;;;18.33;10.80;;;-1.00;99.90;;;;;;4977712;28;20215;-81
2022/01/11 03:22:21;;;;;;;16.65;9.18;;;-1.00;99.90;;;;;;4976276;28;20255;-81
2022/01/11 03:24:48;;;;;;;13.52;9.25;;;-1.00;99.90;;;;;;4973825;28;20214;-82
2022/01/11 03:27:15;;;;;;;15.93;8.98;;;-1.00;99.90;;;;;;4977147;28;20204;-81
2022/01/11 03:29:43;;;;;;;22.55;10.00;;;-1.10;99.90;;;;;;4977442;28;20230;-82
2022/01/11 03:32:12;;;;;;;22.25;11.05;;;-1.10;99.90;;;;;;4976505;28;20235;-81
2022/01/11 03:34:41;;;;;;;16.95;8.77;;;-1.10;99.90;;;;;;4978356;28;20212;-83
2022/01/11 03:37:10;;;;;;;18.42;10.15;;;-1.10;99.90;;;;;;4977386;28;20226;-82
2022/01/11 03:39:37;;;;;;;14.18;8.25;;;-1.10;99.90;;;;;;4977924;28;20670;-81
2022/01/11 03:42:04;;;;;;;12.75;8.50;;;-1.10;99.90;;;;;;4977245;28;20204;-82
2022/01/11 03:44:31;;;;;;;16.08;8.43;;;-1.10;99.90;;;;;;4977641;28;20204;-82
2022/01/11 03:46:59;;;;;;;14.05;8.38;;;-1.10;99.90;;;;;;4977841;28;20208;-81
2022/01/11 03:49:26;;;;;;;21.70;9.80;;;-1.10;99.90;;;;;;4978375;28;20239;-83
2022/01/11 03:51:53;;;;;;;15.18;8.70;;;-1.20;99.90;;;;;;4976305;28;20216;-83
2022/01/11 03:54:25;;;;;;;16.88;9.18;;;-1.20;99.90;;;;;;4977791;28;20632;-80
2022/01/11 03:56:53;;;;;;;16.60;9.70;;;-1.30;99.90;;;;;;4976086;28;20293;-83
2022/01/11 03:59:21;;;;;;;22.33;9.70;;;-1.20;99.90;;;;;;4977172;28;20602;-82
2022/01/11 04:01:48;;;;;;;19.27;8.30;;;-1.30;99.90;;;;;;4977048;28;20208;-81
2022/01/11 04:04:17;;;;;;;13.20;8.10;;;-1.30;99.90;;;;;;4981377;28;20224;-81
2022/01/11 04:06:43;;;;;;;15.68;7.38;;;-1.30;99.90;;;;;;4976979;28;20210;-81
2022/01/11 04:11:46;;;;;;;14.05;8.30;;;-1.30;99.90;;;;;;5717166;22;20234;-83
2022/01/11 04:14:12;;;;;;;18.00;9.10;;;-1.30;99.90;;;;;;4977845;28;20211;-84
2022/01/11 04:16:39;;;;;;;14.60;8.27;;;-1.30;99.90;;;;;;4975829;28;20228;-83
2022/01/11 04:19:06;;;;;;;13.60;7.68;;;-1.40;99.90;;;;;;4976522;28;20207;-84
2022/01/11 04:21:34;;;;;;;12.07;9.27;;;-1.40;99.90;;;;;;4973831;28;20224;-83
2022/01/11 04:24:02;;;;;;;14.40;8.15;;;-1.40;99.90;;;;;;4973483;28;20201;-84
2022/01/11 04:26:29;;;;;;;14.68;8.50;;;-1.30;99.90;;;;;;4977238;28;20211;-83
2022/01/11 04:28:56;;;;;;;13.40;7.88;;;-1.30;99.90;;;;;;4972526;28;20219;-84
2022/01/11 04:31:23;;;;;;;17.85;9.65;;;-1.30;99.90;;;;;;4974613;28;20246;-82
2022/01/11 04:33:50;;;;;;;17.35;9.00;;;-1.30;99.90;;;;;;4971843;28;20214;-84
2022/01/11 04:36:17;;;;;;;21.23;10.48;;;-1.30;99.90;;;;;;4970271;28;20216;-84
2022/01/11 04:38:45;;;;;;;20.50;9.20;;;-1.20;99.90;;;;;;4974597;28;20208;-85
2022/01/11 04:41:12;;;;;;;24.75;12.18;;;-1.30;99.90;;;;;;4973084;28;20229;-85
2022/01/11 04:43:38;;;;;;;18.27;10.20;;;-1.30;99.90;;;;;;4977358;28;20223;-85
2022/01/11 04:46:05;;;;;;;15.57;10.02;;;-1.30;99.90;;;;;;4979713;28;20204;-85
2022/01/11 04:48:33;;;;;;;19.73;10.23;;;-1.30;99.90;;;;;;4979422;28;20212;-85
2022/01/11 04:53:39;;;;;;;19.98;11.57;;;-1.40;99.90;;;;;;5820177;23;20265;-83
2022/01/11 04:56:08;;;;;;;17.08;10.93;;;-1.40;99.90;;;;;;4994439;28;20229;-82
2022/01/11 04:58:35;;;;;;;16.92;10.23;;;-1.30;99.90;;;;;;4997939;28;20307;-81
2022/01/11 05:01:02;;;;;;;21.27;11.02;;;-1.40;99.90;;;;;;4987605;28;20201;-82
2022/01/11 05:03:29;;;;;;;21.42;12.50;;;-1.40;99.90;;;;;;4999275;28;20260;-83
2022/01/11 05:05:56;;;;;;;22.05;11.77;;;-1.40;99.90;;;;;;4998430;28;20203;-82
2022/01/11 05:08:22;;;;;;;26.55;12.90;;;-1.40;99.90;;;;;;4974602;28;20267;-82
2022/01/11 05:10:49;;;;;;;18.00;12.35;;;-1.40;99.90;;;;;;4982333;28;20657;-83
2022/01/11 05:13:19;;;;;;;25.00;12.10;;;-1.40;99.90;;;;;;4984911;28;20210;-80
2022/01/11 05:15:47;;;;;;;28.98;14.32;;;-1.40;99.90;;;;;;4987557;28;20272;-81
2022/01/11 05:18:15;;;;;;;26.00;12.60;;;-1.50;99.90;;;;;;4998158;28;20228;-82
2022/01/11 05:20:42;;;;;;;25.13;13.32;;;-1.50;99.90;;;;;;4983441;28;20201;-82
2022/01/11 05:23:09;;;;;;;20.52;12.45;;;-1.50;99.90;;;;;;4978410;28;20276;-81
2022/01/11 05:25:37;;;;;;;29.00;13.77;;;-1.50;99.90;;;;;;4987144;28;20205;-80
2022/01/11 05:28:04;;;;;;;28.90;16.35;;;-1.60;99.90;;;;;;4985991;28;20201;-79
2022/01/11 05:30:33;;;;;;;22.45;13.40;;;-1.60;99.90;;;;;;4983649;28;20200;-79
2022/01/11 05:32:59;;;;;;;21.52;12.27;;;-1.60;99.90;;;;;;4985943;28;20206;-79
2022/01/11 05:35:27;;;;;;;15.68;8.38;;;-1.20;99.90;;;;;;4977613;28;20313;-80
2022/01/11 05:37:54;;;;;;;16.73;10.97;;;4.50;99.90;;;;;;4978152;28;20212;-77
2022/01/11 05:40:21;;;;;;;22.17;13.40;;;5.30;99.90;;;;;;4975788;28;21009;-77
2022/01/11 05:42:50;;;;;;;26.37;14.47;;;4.40;99.90;;;;;;4976816;28;20467;-78
2022/01/11 05:45:18;;;;;;;16.23;11.97;;;3.30;99.90;;;;;;4976029;28;20486;-78
2022/01/11 05:47:52;;;;;;;19.20;12.70;;;2.40;99.90;;;;;;4977644;28;20443;-81
2022/01/11 05:50:20;;;;;;;20.00;13.35;;;1.90;99.90;;;;;;4982478;28;20455;-81
2022/01/11 05:52:49;;;;;;;20.65;12.75;;;1.30;99.90;;;;;;4990030;28;20223;-81
2022/01/11 05:55:16;;;;;;;20.70;12.18;;;0.80;99.90;;;;;;4997258;28;20233;-80
2022/01/11 05:57:43;;;;;;;21.50;13.30;;;0.40;99.90;;;;;;4984345;28;20237;-81
2022/01/11 06:00:14;;;;;;;25.48;13.35;;;0.10;99.90;;;;;;4978481;28;20209;-82
2022/01/11 06:02:41;;;;;;;19.33;12.20;;;-0.10;99.90;;;;;;4978995;28;20673;-80
2022/01/11 06:05:10;;;;;;;22.83;13.15;;;-0.30;99.90;;;;;;4978085;28;20229;-82
2022/01/11 06:07:39;;;;;;;21.27;12.25;;;-0.50;99.90;;;;;;4979118;28;20202;-81
2022/01/11 06:10:07;;;;;;;22.58;14.30;;;-0.70;99.90;;;;;;4977659;28;20248;-80
2022/01/11 06:12:34;;;;;;;23.27;13.15;;;-0.90;99.90;;;;;;4978739;28;20213;-80
2022/01/11 06:15:00;;;;;;;20.92;13.38;;;-1.10;99.90;;;;;;4977021;28;20220;-81
2022/01/11 06:17:27;;;;;;;18.50;12.93;;;-1.10;99.90;;;;;;4970942;28;20683;-78
2022/01/11 06:19:54;;;;;;;23.10;13.05;;;-1.20;99.90;;;;;;4960823;28;20209;-80
2022/01/11 06:22:24;;;;;;;26.20;14.90;;;-1.20;99.90;;;;;;4960529;28;21012;-79
2022/01/11 06:24:51;;;;;;;19.25;11.98;;;-1.40;99.90;;;;;;4976115;28;20782;-80
2022/01/11 06:27:18;;;;;;;23.13;12.98;;;-1.30;99.90;;;;;;4969975;28;20251;-78
2022/01/11 06:29:45;;;;;;;28.27;15.60;;;-1.40;99.90;;;;;;4972406;28;20209;-79
2022/01/11 06:32:12;;;;;;;23.27;12.18;;;-1.50;99.90;;;;;;4977441;28;20299;-79
2022/01/11 06:34:39;;;;;;;23.40;12.52;;;-1.40;99.90;;;;;;4976681;28;20228;-79
2022/01/11 06:37:06;;;;;;;25.30;14.90;;;-1.50;99.90;;;;;;4976618;28;20680;-79
2022/01/11 06:39:36;;;;;;;24.10;13.88;;;-1.50;99.90;;;;;;4975524;28;20295;-80
2022/01/11 06:42:04;;;;;;;25.73;14.10;;;-1.60;99.90;;;;;;4975998;28;20231;-80
2022/01/11 06:44:31;;;;;;;26.85;15.23;;;-1.60;99.90;;;;;;4966427;28;20216;-79
2022/01/11 06:46:58;;;;;;;30.77;16.95;;;-1.60;99.90;;;;;;4976442;28;20200;-82
2022/01/11 06:49:25;;;;;;;28.67;15.80;;;-1.70;99.90;;;;;;4977698;28;20205;-79
2022/01/11 06:51:51;;;;;;;29.50;15.75;;;-1.60;99.90;;;;;;4976246;28;20211;-79
2022/01/11 06:54:18;;;;;;;20.75;13.77;;;-1.70;99.90;;;;;;4970839;28;20619;-80
2022/01/11 06:56:46;;;;;;;24.92;15.10;;;-1.70;99.90;;;;;;4989023;28;20202;-80
2022/01/11 06:59:13;;;;;;;27.60;14.30;;;-1.70;99.90;;;;;;4975775;28;20243;-79
2022/01/11 07:01:40;;;;;;;23.95;15.05;;;-1.70;99.90;;;;;;4975970;28;20212;-79
2022/01/11 07:04:07;;;;;;;26.33;13.75;;;-1.80;99.90;;;;;;4974512;28;20227;-79
2022/01/11 07:06:34;;;;;;;19.85;13.27;;;-1.70;99.90;;;;;;4973966;28;20576;-78
2022/01/11 07:09:02;;;;;;;22.70;13.18;;;-1.70;99.90;;;;;;4975697;28;20212;-78
2022/01/11 07:11:28;;;;;;;24.13;13.52;;;-1.60;99.90;;;;;;4974569;28;20204;-78
2022/01/11 07:13:57;;;;;;;27.75;14.70;;;-1.70;99.90;;;;;;4974117;28;20216;-78
2022/01/11 07:16:24;;;;;;;25.55;14.88;;;-1.70;99.90;;;;;;4975475;28;20660;-77
2022/01/11 07:18:50;;;;;;;21.25;14.25;;;-1.70;99.90;;;;;;4974759;28;20220;-78
2022/01/11 07:21:17;;;;;;;23.77;15.65;;;-1.70;99.90;;;;;;4976137;28;20208;-78
2022/01/11 07:23:44;;;;;;;26.65;16.27;;;-1.80;99.90;;;;;;4964345;28;20759;-77
2022/01/11 07:26:11;;;;;;;25.48;13.73;;;-1.80;99.90;;;;;;4964956;28;20218;-78
2022/01/11 07:28:39;;;;;;;26.48;14.63;;;-1.90;99.90;;;;;;4972966;28;20235;-78
2022/01/11 07:31:07;;;;;;;23.60;14.05;;;-1.80;99.90;;;;;;4969905;28;20209;-79
2022/01/11 07:33:34;;;;;;;18.80;12.90;;;-1.80;99.90;;;;;;4963972;28;20232;-79
2022/01/11 07:36:01;;;;;;;20.20;12.52;;;-1.80;99.90;;;;;;4975454;28;20208;-78
2022/01/11 07:38:27;;;;;;;22.90;13.07;;;-1.80;99.90;;;;;;4976764;28;20227;-79
2022/01/11 07:40:54;;;;;;;20.40;12.43;;;-1.80;99.90;;;;;;4970013;28;20200;-79
2022/01/11 07:43:21;;;;;;;21.40;13.35;;;-1.80;99.90;;;;;;4972175;28;20582;-79
2022/01/11 07:45:48;;;;;;;30.23;13.68;;;-1.70;99.90;;;;;;4976833;28;20771;-79
2022/01/11 07:48:16;;;;;;;26.02;13.50;;;-1.70;99.90;;;;;;4967206;28;20378;-78
2022/01/11 07:50:43;;;;;;;19.63;12.40;;;-1.70;99.90;;;;;;4965120;28;20220;-78
2022/01/11 07:53:10;;;;;;;22.20;12.48;;;-1.70;99.90;;;;;;4966505;28;20220;-79
2022/01/11 07:55:38;;;;;;;22.15;13.27;;;-1.60;99.90;;;;;;4974019;28;20220;-78
2022/01/11 07:58:04;;;;;;;21.73;12.85;;;-1.60;99.90;;;;;;4959388;28;20223;-78
2022/01/11 08:00:31;;;;;;;20.85;13.27;;;-1.60;99.90;;;;;;4963281;28;20215;-78
2022/01/11 08:02:58;;;;;;;20.67;13.00;;;-1.60;99.90;;;;;;4955670;28;20215;-80
2022/01/11 08:05:27;;;;;;;27.20;13.10;;;-1.60;99.90;;;;;;4960660;28;20224;-80
2022/01/11 08:07:54;;;;;;;24.67;14.23;;;-1.60;99.90;;;;;;4975148;28;20213;-80
2022/01/11 08:10:21;;;;;;;19.67;11.60;;;-1.50;99.90;;;;;;4975768;28;20580;-80
2022/01/11 08:12:47;;;;;;;25.33;13.07;;;-1.50;99.90;;;;;;4975336;28;20219;-78
2022/01/11 08:15:14;;;;;;;26.88;14.05;;;-1.50;99.90;;;;;;4972586;28;20268;-80
2022/01/11 08:17:41;;;;;;;20.90;14.13;;;-1.40;99.90;;;;;;4971825;28;20612;-79
2022/01/11 08:20:09;;;;;;;26.15;14.32;;;-1.40;99.90;;;;;;4969130;28;20210;-80
2022/01/11 08:22:37;;;;;;;25.08;14.57;;;-1.40;99.90;;;;;;4967051;28;20216;-79
2022/01/11 08:25:05;;;;;;;27.90;17.25;;;-1.40;99.90;;;;;;4970472;28;20229;-79
2022/01/11 08:27:33;;;;;;;29.05;15.70;;;-1.40;99.90;;;;;;4968700;28;20328;-79
2022/01/11 08:30:00;;;;;;;25.40;14.60;;;-1.40;99.90;;;;;;4964567;28;20677;-78
2022/01/11 08:32:27;;;;;;;22.33;14.68;;;-1.30;99.90;;;;;;4959574;29;20225;-78
2022/01/11 08:34:54;;;;;;;24.83;16.55;;;-1.20;99.90;;;;;;4957975;29;20225;-78
2022/01/11 08:37:21;;;;;;;26.77;15.40;;;-1.20;99.90;;;;;;4964740;28;20693;-78
2022/01/11 08:39:49;;;;;;;32.75;17.85;;;-1.20;99.90;;;;;;4973294;28;20212;-80
2022/01/11 08:42:16;;;;;;;27.65;17.13;;;-1.20;99.90;;;;;;4973711;28;20298;-79
2022/01/11 08:44:45;;;;;;;30.15;16.42;;;-1.10;99.90;;;;;;4968334;28;20293;-79
2022/01/11 08:47:12;;;;;;;27.70;17.90;;;-1.00;99.90;;;;;;4974473;28;20257;-79
2022/01/11 08:49:40;;;;;;;24.13;16.35;;;-1.00;99.90;;;;;;4975503;28;20819;-79
2022/01/11 08:52:07;;;;;;;29.00;15.70;;;-0.90;99.90;;;;;;4978067;28;20300;-79
2022/01/11 08:54:34;;;;;;;33.08;17.02;;;-1.00;99.90;;;;;;4974041;28;20247;-79
2022/01/11 08:57:03;;;;;;;26.23;15.43;;;-0.90;99.90;;;;;;4984308;28;20242;-79
2022/01/11 08:59:30;;;;;;;28.55;16.25;;;-0.90;99.90;;;;;;4968988;28;20253;-78
2022/01/11 09:01:59;;;;;;;28.67;17.77;;;-0.80;99.90;;;;;;4976167;28;20227;-79
2022/01/11 09:04:27;;;;;;;25.75;16.95;;;-0.80;99.90;;;;;;4969569;28;20315;-78
2022/01/11 09:06:57;;;;;;;31.95;17.48;;;-0.80;99.90;;;;;;4968594;28;20253;-78
2022/01/11 09:09:24;;;;;;;32.08;17.52;;;-0.70;99.90;;;;;;4988984;28;20204;-78
2022/01/11 09:11:51;;;;;;;31.48;19.30;;;-0.70;99.90;;;;;;4991538;28;20209;-79
2022/01/11 09:14:19;;;;;;;26.90;15.43;;;-0.70;99.90;;;;;;4969271;28;20234;-79
2022/01/11 09:16:46;;;;;;;30.33;17.85;;;-0.60;99.90;;;;;;4959110;28;20695;-78
2022/01/11 09:19:13;;;;;;;24.83;17.15;;;-0.60;99.90;;;;;;4970053;28;20229;-79
2022/01/11 09:21:40;;;;;;;27.65;17.40;;;-0.60;99.90;;;;;;4978462;28;20213;-78
2022/01/11 09:24:08;;;;;;;26.92;16.67;;;-0.50;99.90;;;;;;4958577;29;20239;-79
2022/01/11 09:26:36;;;;;;;23.17;15.80;;;-0.50;99.90;;;;;;4981028;28;20215;-79
2022/01/11 09:29:03;;;;;;;25.83;17.67;;;-0.40;99.90;;;;;;4974433;28;20871;-80
2022/01/11 09:31:32;;;;;;;32.45;18.58;;;-0.30;99.90;;;;;;4977479;28;20200;-79
2022/01/11 09:33:59;;;;;;;22.45;16.38;;;-0.20;99.90;;;;;;4977220;28;20650;-79
2022/01/11 09:36:26;;;;;;;28.20;17.50;;;-0.20;99.90;;;;;;4977232;28;20253;-79
2022/01/11 09:38:53;;;;;;;28.60;17.55;;;-0.20;99.90;;;;;;4980164;28;20219;-78
2022/01/11 09:41:20;;;;;;;29.60;16.23;;;-0.20;99.90;;;;;;4994576;28;20203;-79
2022/01/11 09:43:47;;;;;;;28.73;18.60;;;-0.10;99.90;;;;;;4989761;28;20305;-79
2022/01/11 09:46:14;;;;;;;29.85;17.65;;;0.00;99.90;;;;;;4990316;28;20208;-80
2022/01/11 09:48:43;;;;;;;25.58;16.15;;;0.00;99.90;;;;;;4966822;28;20203;-80
2022/01/11 09:51:10;;;;;;;31.08;18.33;;;0.10;99.90;;;;;;4975143;28;20269;-80
2022/01/11 09:53:37;;;;;;;30.10;17.88;;;0.20;99.90;;;;;;4977077;28;20316;-78
2022/01/11 09:56:08;;;;;;;24.83;16.55;;;0.20;99.90;;;;;;4977340;28;20378;-79
2022/01/11 09:58:35;;;;;;;25.42;16.00;;;0.20;99.90;;;;;;4975830;28;20232;-81
2022/01/11 10:01:03;;;;;;;23.92;16.40;;;0.30;99.90;;;;;;4959817;28;20218;-80
2022/01/11 10:03:30;;;;;;;22.67;15.40;;;0.30;99.90;;;;;;4975940;28;20235;-78
2022/01/11 10:06:14;;;;;;;23.33;14.93;;;0.40;99.90;;;;;;4975540;28;20204;-79
2022/01/11 10:08:41;;;;;;;26.63;16.85;;;0.40;99.90;;;;;;4972361;28;20228;-80
2022/01/11 10:11:08;;;;;;;22.80;15.07;;;0.40;99.90;;;;;;4978292;28;20289;-79
2022/01/11 10:13:37;;;;;;;23.65;14.98;;;0.50;99.90;;;;;;4976012;28;20319;-79
2022/01/11 10:16:20;;;;;;;26.75;16.27;;;0.50;99.90;;;;;;4976629;28;20218;-79
2022/01/11 10:18:47;;;;;;;23.65;14.10;;;0.60;99.90;;;;;;4971625;28;20238;-79
2022/01/11 10:21:36;;;;;;;25.05;16.35;;;0.70;99.90;;;;;;4963095;28;20763;-80
2022/01/11 10:24:25;;;;;;;24.88;16.27;;;0.80;99.90;;;;;;4956970;29;20235;-82
2022/01/11 10:26:53;;;;;;;23.35;14.40;;;0.80;99.90;;;;;;4956017;29;20199;-83
2022/01/11 10:29:29;;;;;;;21.50;15.05;;;0.90;99.90;;;;;;4974550;28;20210;-81
2022/01/11 10:31:57;;;;;;;30.50;17.90;;;1.00;99.90;;;;;;4976922;28;20212;-81
2022/01/11 10:34:30;;;;;;;23.77;15.25;;;1.00;99.90;;;;;;4946092;28;20263;-82
2022/01/11 10:37:00;;;;;;;25.80;14.00;;;1.10;99.90;;;;;;4977558;28;20298;-82
2022/01/11 10:39:32;;;;;;;25.65;15.77;;;1.10;99.90;;;;;;4957280;29;20311;-80
2022/01/11 10:42:00;;;;;;;20.85;16.02;;;1.20;99.90;;;;;;4956200;28;20216;-80
2022/01/11 10:44:59;;;;;;;25.63;16.13;;;1.30;99.90;;;;;;4976337;28;20228;-80
2022/01/11 10:47:28;;;;;;;21.13;14.68;;;1.40;99.90;;;;;;4912456;29;20209;-82
2022/01/11 10:49:58;;;;;;;22.73;16.00;;;1.50;99.90;;;;;;4945145;28;20212;-82
2022/01/11 10:52:31;;;;;;;23.98;15.60;;;1.70;99.90;;;;;;4960336;28;20211;-82
2022/01/11 10:54:58;;;;;;;26.45;17.15;;;1.90;99.90;;;;;;4976242;28;20631;-81
2022/01/11 10:57:27;;;;;;;9.50;6.00;;;2.10;99.90;;;;;;4975375;28;20791;-81
2022/01/11 11:00:11;;;;;;;24.37;14.20;;;4.10;99.90;;;;;;4973951;28;20499;-80
2022/01/11 11:02:39;;;;;;;31.00;22.23;;;5.10;99.90;;;;;;4974871;28;20949;-82
2022/01/11 11:05:32;;;;;;;35.07;24.83;;;5.60;99.90;;;;;;4956800;29;20484;-81
2022/01/11 11:08:09;;;;;;;30.67;19.60;;;5.30;99.90;;;;;;4972045;28;20831;-81
2022/01/11 11:10:39;;;;;;;23.73;17.30;;;4.90;99.90;;;;;;4975340;28;20451;-80
2022/01/11 11:13:08;;;;;;;25.67;17.87;;;4.50;99.90;;;;;;4973338;28;20467;-81
2022/01/11 11:15:37;;;;;;;23.20;17.40;;;4.30;99.90;;;;;;4975402;28;21192;-80
2022/01/11 11:18:06;;;;;;;24.97;17.50;;;4.10;99.90;;;;;;4976210;28;20483;-80
2022/01/11 11:20:34;;;;;;;22.80;16.53;;;4.10;99.90;;;;;;4975744;28;20493;-80
2022/01/11 11:23:04;;;;;;;24.57;17.23;;;4.10;99.90;;;;;;4970624;28;20978;-82
2022/01/11 11:25:31;;;;;;;21.67;15.67;;;4.30;99.90;;;;;;4956277;28;20826;-80
2022/01/11 11:27:57;;;;;;;26.13;18.13;;;4.70;99.90;;;;;;4975503;28;20457;-79
2022/01/11 11:30:24;;;;;;;24.10;20.23;;;5.70;99.90;;;;;;4976135;28;20459;-82
2022/01/11 11:32:54;;;;;;;31.90;24.90;;;7.00;99.90;;;;;;4975370;28;20566;-81
2022/01/11 11:35:21;;;;;;;50.77;36.00;;;8.50;99.90;;;;;;4967668;28;21029;-82
2022/01/11 11:37:52;;;;;;;325.00;75.60;;;10.80;99.90;;;;;;4975489;28;20455;-81
2022/01/11 11:40:24;;;;;;;37.70;30.43;;;12.90;99.90;;;;;;4976312;28;20585;-80
2022/01/11 11:42:54;;;;;;;24.00;21.47;;;15.10;99.90;;;;;;4971756;28;20458;-83
2022/01/11 11:45:24;;;;;;;19.10;17.17;;;16.90;99.90;;;;;;4969665;28;20539;-83
2022/01/11 11:47:52;;;;;;;16.80;14.60;;;18.60;99.90;;;;;;4977682;28;20462;-80
2022/01/11 11:50:22;;;;;;;14.00;12.10;;;19.80;99.90;;;;;;4977692;28;20464;-81
2022/01/11 11:52:51;;;;;;;17.63;12.87;;;19.90;99.90;;;;;;4980290;28;20463;-82
2022/01/11 11:55:23;;;;;;;15.93;13.33;;;18.60;96.10;;;;;;4980636;28;20482;-80
2022/01/11 11:57:53;;;;;;;18.70;14.47;;;16.90;96.50;;;;;;4970647;28;20455;-81
2022/01/11 12:00:23;;;;;;;22.13;13.83;;;15.20;97.50;;;;;;4972194;28;20483;-80
2022/01/11 12:02:53;;;;;;;17.27;14.33;;;14.10;99.70;;;;;;4967466;28;20900;-80
2022/01/11 12:05:38;;;;;;;16.63;11.97;;;13.60;99.90;;;;;;4976143;28;20988;-82
2022/01/11 12:08:32;;;;;;;13.80;7.90;;;14.60;99.90;;;;;;4978643;28;20514;-82
2022/01/11 12:11:21;;;;;;;12.50;4.97;;;16.40;97.90;;;;;;4971975;28;20843;-82
2022/01/11 12:13:51;;;;;;;7.70;4.83;;;17.40;88.30;;;;;;4976988;28;20498;-81
2022/01/11 12:16:43;;;;;;;9.30;5.80;;;18.50;84.20;;;;;;4982620;28;21185;-82
2022/01/11 12:19:29;;;;;;;10.43;5.10;;;20.40;77.00;;;;;;4979417;28;20581;-81
2022/01/11 12:22:18;;;;;;;6.13;4.33;;;20.70;70.40;;;;;;4979813;28;20974;-83
2022/01/11 12:24:47;;;;;;;7.60;4.80;;;20.10;68.80;;;;;;4981294;28;20470;-83
2022/01/11 12:27:21;;;;;;;8.33;4.67;;;18.70;67.80;;;;;;4978375;28;20958;-81
2022/01/11 12:30:04;;;;;;;9.23;4.20;;;15.80;69.60;;;;;;4974958;28;20977;-82
2022/01/11 12:32:33;;;;;;;10.40;4.50;;;13.70;76.10;;;;;;4975189;28;20450;-81
2022/01/11 12:35:03;;;;;;;10.47;4.50;;;13.50;81.00;;;;;;4978667;28;20557;-79
2022/01/11 12:37:33;;;;;;;6.53;4.33;;;12.90;86.00;;;;;;4977287;28;20545;-81
2022/01/11 12:40:13;;;;;;;10.73;5.03;;;12.50;92.60;;;;;;4973309;28;20489;-81
2022/01/11 12:42:52;;;;;;;11.10;4.50;;;12.00;99.70;;;;;;4978251;28;20487;-82
2022/01/11 12:45:40;;;;;;;8.40;4.87;;;11.00;99.90;;;;;;4971035;28;21001;-82